sensor_id;sensor_type;location;lat;lon;timestamp;P1;durP1;ratioP1;P2;durP2;ratioP2
12687;SDS011;6408;59.388;17.798;2023-03-14T00:00:33;2.60;;;1.20;;
12687;SDS011;6408;59.388;17.798;2023-03-14T00:03:02;2.10;;;1.07;;
12687;SDS011;6408;59.388;17.798;2023-03-14T00:05:30;2.63;;;1.10;;
12687;SDS011;6408;59.388;17.798;2023-03-14T00:08:00;3.73;;;1.40;;
12687;SDS011;6408;59.388;17.798;2023-03-14T00:10:28;3.87;;;1.10;;
12687;SDS011;6408;59.388;17.798;2023-03-14T00:12:57;3.20;;;1.33;;
12687;SDS011;6408;59.388;17.798;2023-03-14T00:15:25;1.73;;;1.00;;
12687;SDS011;6408;59.388;17.798;2023-03-14T00:17:52;3.20;;;1.40;;
12687;SDS011;6408;59.388;17.798;2023-03-14T00:20:20;2.00;;;0.93;;
12687;SDS011;6408;59.388;17.798;2023-03-14T00:22:50;4.07;;;1.10;;
12687;SDS011;6408;59.388;17.798;2023-03-14T00:25:23;2.40;;;1.30;;
12687;SDS011;6408;59.388;17.798;2023-03-14T00:27:51;1.40;;;0.83;;
12687;SDS011;6408;59.388;17.798;2023-03-14T00:30:22;2.20;;;1.07;;
12687;SDS011;6408;59.388;17.798;2023-03-14T00:32:49;2.97;;;1.20;;
12687;SDS011;6408;59.388;17.798;2023-03-14T00:35:17;2.80;;;1.00;;
12687;SDS011;6408;59.388;17.798;2023-03-14T00:37:46;2.73;;;1.20;;
12687;SDS011;6408;59.388;17.798;2023-03-14T00:40:14;2.80;;;1.17;;
12687;SDS011;6408;59.388;17.798;2023-03-14T00:42:44;3.00;;;1.20;;
12687;SDS011;6408;59.388;17.798;2023-03-14T00:45:12;1.67;;;1.30;;
12687;SDS011;6408;59.388;17.798;2023-03-14T00:47:40;2.10;;;1.20;;
12687;SDS011;6408;59.388;17.798;2023-03-14T00:50:10;4.83;;;1.40;;
12687;SDS011;6408;59.388;17.798;2023-03-14T00:52:39;3.43;;;1.17;;
12687;SDS011;6408;59.388;17.798;2023-03-14T00:55:07;2.30;;;1.20;;
12687;SDS011;6408;59.388;17.798;2023-03-14T00:57:39;3.37;;;1.00;;
12687;SDS011;6408;59.388;17.798;2023-03-14T01:00:10;4.27;;;1.13;;
12687;SDS011;6408;59.388;17.798;2023-03-14T01:02:52;2.90;;;1.27;;
12687;SDS011;6408;59.388;17.798;2023-03-14T01:05:19;3.20;;;1.30;;
12687;SDS011;6408;59.388;17.798;2023-03-14T01:07:49;1.67;;;1.07;;
12687;SDS011;6408;59.388;17.798;2023-03-14T01:10:16;2.90;;;1.20;;
12687;SDS011;6408;59.388;17.798;2023-03-14T01:12:44;2.77;;;1.20;;
12687;SDS011;6408;59.388;17.798;2023-03-14T01:15:13;3.13;;;1.10;;
12687;SDS011;6408;59.388;17.798;2023-03-14T01:17:42;2.53;;;1.07;;
12687;SDS011;6408;59.388;17.798;2023-03-14T01:20:10;2.07;;;1.00;;
12687;SDS011;6408;59.388;17.798;2023-03-14T01:22:41;2.67;;;1.10;;
12687;SDS011;6408;59.388;17.798;2023-03-14T01:25:10;3.87;;;1.20;;
12687;SDS011;6408;59.388;17.798;2023-03-14T01:27:39;2.30;;;1.00;;
12687;SDS011;6408;59.388;17.798;2023-03-14T01:30:07;4.00;;;1.30;;
12687;SDS011;6408;59.388;17.798;2023-03-14T01:32:37;3.53;;;1.17;;
12687;SDS011;6408;59.388;17.798;2023-03-14T01:35:07;3.67;;;1.37;;
12687;SDS011;6408;59.388;17.798;2023-03-14T01:37:35;1.90;;;1.03;;
12687;SDS011;6408;59.388;17.798;2023-03-14T01:40:03;1.03;;;0.87;;
12687;SDS011;6408;59.388;17.798;2023-03-14T01:42:32;2.30;;;1.10;;
12687;SDS011;6408;59.388;17.798;2023-03-14T01:45:00;3.90;;;1.30;;
12687;SDS011;6408;59.388;17.798;2023-03-14T01:47:30;2.00;;;1.00;;
12687;SDS011;6408;59.388;17.798;2023-03-14T01:50:01;2.20;;;1.10;;
12687;SDS011;6408;59.388;17.798;2023-03-14T01:52:32;2.63;;;0.90;;
12687;SDS011;6408;59.388;17.798;2023-03-14T01:55:09;4.93;;;1.00;;
12687;SDS011;6408;59.388;17.798;2023-03-14T01:57:39;1.73;;;0.80;;
12687;SDS011;6408;59.388;17.798;2023-03-14T02:00:13;1.63;;;0.90;;
12687;SDS011;6408;59.388;17.798;2023-03-14T02:02:44;1.97;;;0.93;;
12687;SDS011;6408;59.388;17.798;2023-03-14T02:05:17;1.63;;;0.70;;
12687;SDS011;6408;59.388;17.798;2023-03-14T02:07:52;1.67;;;0.90;;
12687;SDS011;6408;59.388;17.798;2023-03-14T02:10:27;0.87;;;0.60;;
12687;SDS011;6408;59.388;17.798;2023-03-14T02:12:59;1.23;;;0.73;;
12687;SDS011;6408;59.388;17.798;2023-03-14T02:15:29;3.93;;;0.93;;
12687;SDS011;6408;59.388;17.798;2023-03-14T02:17:58;1.00;;;0.63;;
12687;SDS011;6408;59.388;17.798;2023-03-14T02:20:30;1.53;;;0.60;;
12687;SDS011;6408;59.388;17.798;2023-03-14T02:23:05;2.60;;;0.70;;
12687;SDS011;6408;59.388;17.798;2023-03-14T02:25:36;1.50;;;0.73;;
12687;SDS011;6408;59.388;17.798;2023-03-14T02:28:11;2.27;;;0.63;;
12687;SDS011;6408;59.388;17.798;2023-03-14T02:30:40;2.07;;;0.80;;
12687;SDS011;6408;59.388;17.798;2023-03-14T02:33:08;0.57;;;0.53;;
12687;SDS011;6408;59.388;17.798;2023-03-14T02:35:40;1.30;;;0.53;;
12687;SDS011;6408;59.388;17.798;2023-03-14T02:38:13;2.93;;;0.67;;
12687;SDS011;6408;59.388;17.798;2023-03-14T02:40:47;1.40;;;0.63;;
12687;SDS011;6408;59.388;17.798;2023-03-14T02:43:16;1.17;;;0.80;;
12687;SDS011;6408;59.388;17.798;2023-03-14T02:45:44;1.90;;;0.50;;
12687;SDS011;6408;59.388;17.798;2023-03-14T02:48:14;2.13;;;0.70;;
12687;SDS011;6408;59.388;17.798;2023-03-14T02:50:45;1.73;;;0.97;;
12687;SDS011;6408;59.388;17.798;2023-03-14T02:53:16;3.30;;;0.40;;
12687;SDS011;6408;59.388;17.798;2023-03-14T02:55:46;2.23;;;0.70;;
12687;SDS011;6408;59.388;17.798;2023-03-14T02:58:16;1.00;;;0.67;;
12687;SDS011;6408;59.388;17.798;2023-03-14T03:00:45;1.97;;;0.67;;
12687;SDS011;6408;59.388;17.798;2023-03-14T03:03:12;0.83;;;0.53;;
12687;SDS011;6408;59.388;17.798;2023-03-14T03:05:47;1.30;;;0.77;;
12687;SDS011;6408;59.388;17.798;2023-03-14T03:08:17;3.07;;;0.80;;
12687;SDS011;6408;59.388;17.798;2023-03-14T03:10:44;1.07;;;0.63;;
12687;SDS011;6408;59.388;17.798;2023-03-14T03:13:12;0.60;;;0.60;;
12687;SDS011;6408;59.388;17.798;2023-03-14T03:15:43;2.83;;;0.80;;
12687;SDS011;6408;59.388;17.798;2023-03-14T03:18:11;0.40;;;0.40;;
12687;SDS011;6408;59.388;17.798;2023-03-14T03:20:40;1.57;;;0.70;;
12687;SDS011;6408;59.388;17.798;2023-03-14T03:23:09;0.30;;;0.30;;
12687;SDS011;6408;59.388;17.798;2023-03-14T03:25:36;1.23;;;0.60;;
12687;SDS011;6408;59.388;17.798;2023-03-14T03:28:04;1.13;;;0.50;;
12687;SDS011;6408;59.388;17.798;2023-03-14T03:30:33;2.30;;;0.47;;
12687;SDS011;6408;59.388;17.798;2023-03-14T03:33:05;0.20;;;0.20;;
12687;SDS011;6408;59.388;17.798;2023-03-14T03:35:33;2.23;;;0.43;;
12687;SDS011;6408;59.388;17.798;2023-03-14T03:38:01;0.93;;;0.50;;
12687;SDS011;6408;59.388;17.798;2023-03-14T03:40:31;1.77;;;0.53;;
12687;SDS011;6408;59.388;17.798;2023-03-14T03:42:59;2.07;;;0.60;;
12687;SDS011;6408;59.388;17.798;2023-03-14T03:45:27;2.93;;;0.80;;
12687;SDS011;6408;59.388;17.798;2023-03-14T03:47:55;0.50;;;0.50;;
12687;SDS011;6408;59.388;17.798;2023-03-14T03:50:25;0.73;;;0.47;;
12687;SDS011;6408;59.388;17.798;2023-03-14T03:52:54;0.60;;;0.50;;
12687;SDS011;6408;59.388;17.798;2023-03-14T03:55:22;0.93;;;0.70;;
12687;SDS011;6408;59.388;17.798;2023-03-14T03:57:51;2.30;;;0.97;;
12687;SDS011;6408;59.388;17.798;2023-03-14T04:00:33;1.57;;;1.10;;
12687;SDS011;6408;59.388;17.798;2023-03-14T04:03:00;1.23;;;0.80;;
12687;SDS011;6408;59.388;17.798;2023-03-14T04:05:30;2.40;;;0.70;;
12687;SDS011;6408;59.388;17.798;2023-03-14T04:07:59;3.83;;;0.93;;
12687;SDS011;6408;59.388;17.798;2023-03-14T04:10:27;0.87;;;0.70;;
12687;SDS011;6408;59.388;17.798;2023-03-14T04:12:54;4.67;;;0.70;;
12687;SDS011;6408;59.388;17.798;2023-03-14T04:15:23;2.50;;;1.13;;
12687;SDS011;6408;59.388;17.798;2023-03-14T04:17:55;2.13;;;1.30;;
12687;SDS011;6408;59.388;17.798;2023-03-14T04:20:24;0.63;;;0.60;;
12687;SDS011;6408;59.388;17.798;2023-03-14T04:22:54;1.77;;;0.70;;
12687;SDS011;6408;59.388;17.798;2023-03-14T04:25:22;1.90;;;1.00;;
12687;SDS011;6408;59.388;17.798;2023-03-14T04:27:49;2.00;;;0.70;;
12687;SDS011;6408;59.388;17.798;2023-03-14T04:30:17;5.97;;;0.90;;
12687;SDS011;6408;59.388;17.798;2023-03-14T04:32:47;3.30;;;1.20;;
12687;SDS011;6408;59.388;17.798;2023-03-14T04:35:14;1.90;;;0.70;;
12687;SDS011;6408;59.388;17.798;2023-03-14T04:37:42;3.13;;;1.07;;
12687;SDS011;6408;59.388;17.798;2023-03-14T04:40:12;1.50;;;0.90;;
12687;SDS011;6408;59.388;17.798;2023-03-14T04:42:39;2.93;;;1.00;;
12687;SDS011;6408;59.388;17.798;2023-03-14T04:45:23;2.87;;;1.10;;
12687;SDS011;6408;59.388;17.798;2023-03-14T04:48:01;1.77;;;0.87;;
12687;SDS011;6408;59.388;17.798;2023-03-14T04:50:30;1.53;;;0.83;;
12687;SDS011;6408;59.388;17.798;2023-03-14T04:52:57;1.80;;;0.77;;
12687;SDS011;6408;59.388;17.798;2023-03-14T04:55:27;2.93;;;0.87;;
12687;SDS011;6408;59.388;17.798;2023-03-14T04:57:55;4.13;;;0.93;;
12687;SDS011;6408;59.388;17.798;2023-03-14T05:00:24;3.87;;;1.07;;
12687;SDS011;6408;59.388;17.798;2023-03-14T05:02:56;2.23;;;0.97;;
12687;SDS011;6408;59.388;17.798;2023-03-14T05:05:28;3.27;;;1.00;;
12687;SDS011;6408;59.388;17.798;2023-03-14T05:07:58;4.27;;;0.90;;
12687;SDS011;6408;59.388;17.798;2023-03-14T05:10:28;2.13;;;1.00;;
12687;SDS011;6408;59.388;17.798;2023-03-14T05:12:56;5.53;;;1.30;;
12687;SDS011;6408;59.388;17.798;2023-03-14T05:15:23;2.80;;;0.90;;
12687;SDS011;6408;59.388;17.798;2023-03-14T05:17:53;2.70;;;1.00;;
12687;SDS011;6408;59.388;17.798;2023-03-14T05:20:21;1.83;;;0.83;;
12687;SDS011;6408;59.388;17.798;2023-03-14T05:22:49;1.57;;;0.80;;
12687;SDS011;6408;59.388;17.798;2023-03-14T05:25:18;3.90;;;1.03;;
12687;SDS011;6408;59.388;17.798;2023-03-14T05:27:47;3.03;;;0.83;;
12687;SDS011;6408;59.388;17.798;2023-03-14T05:30:15;2.40;;;0.93;;
12687;SDS011;6408;59.388;17.798;2023-03-14T05:32:43;4.13;;;1.50;;
12687;SDS011;6408;59.388;17.798;2023-03-14T05:35:12;1.93;;;0.70;;
12687;SDS011;6408;59.388;17.798;2023-03-14T05:37:40;1.83;;;0.80;;
12687;SDS011;6408;59.388;17.798;2023-03-14T05:40:12;1.47;;;0.60;;
12687;SDS011;6408;59.388;17.798;2023-03-14T05:42:40;1.30;;;0.90;;
12687;SDS011;6408;59.388;17.798;2023-03-14T05:45:09;2.47;;;0.83;;
12687;SDS011;6408;59.388;17.798;2023-03-14T05:47:37;3.57;;;1.10;;
12687;SDS011;6408;59.388;17.798;2023-03-14T05:50:07;2.70;;;0.90;;
12687;SDS011;6408;59.388;17.798;2023-03-14T05:52:36;1.43;;;0.90;;
12687;SDS011;6408;59.388;17.798;2023-03-14T05:55:05;2.70;;;0.63;;
12687;SDS011;6408;59.388;17.798;2023-03-14T05:57:35;4.30;;;0.93;;
12687;SDS011;6408;59.388;17.798;2023-03-14T06:00:03;3.03;;;1.00;;
12687;SDS011;6408;59.388;17.798;2023-03-14T06:02:34;3.60;;;1.47;;
12687;SDS011;6408;59.388;17.798;2023-03-14T06:05:06;2.93;;;0.90;;
12687;SDS011;6408;59.388;17.798;2023-03-14T06:07:34;2.90;;;1.00;;
12687;SDS011;6408;59.388;17.798;2023-03-14T06:10:01;1.93;;;0.60;;
12687;SDS011;6408;59.388;17.798;2023-03-14T06:12:29;2.60;;;0.83;;
12687;SDS011;6408;59.388;17.798;2023-03-14T06:15:06;1.07;;;0.60;;
12687;SDS011;6408;59.388;17.798;2023-03-14T06:17:47;1.13;;;0.73;;
12687;SDS011;6408;59.388;17.798;2023-03-14T06:20:22;4.33;;;0.80;;
12687;SDS011;6408;59.388;17.798;2023-03-14T06:23:05;1.90;;;0.70;;
12687;SDS011;6408;59.388;17.798;2023-03-14T06:25:36;3.60;;;0.90;;
12687;SDS011;6408;59.388;17.798;2023-03-14T06:28:04;1.17;;;0.67;;
12687;SDS011;6408;59.388;17.798;2023-03-14T06:30:32;2.87;;;0.63;;
12687;SDS011;6408;59.388;17.798;2023-03-14T06:33:01;1.47;;;0.63;;
12687;SDS011;6408;59.388;17.798;2023-03-14T06:35:29;1.50;;;0.67;;
12687;SDS011;6408;59.388;17.798;2023-03-14T06:37:56;1.10;;;0.73;;
12687;SDS011;6408;59.388;17.798;2023-03-14T06:40:33;3.43;;;0.70;;
12687;SDS011;6408;59.388;17.798;2023-03-14T06:43:00;2.87;;;0.63;;
12687;SDS011;6408;59.388;17.798;2023-03-14T06:45:28;2.33;;;0.67;;
12687;SDS011;6408;59.388;17.798;2023-03-14T06:47:58;4.40;;;0.77;;
12687;SDS011;6408;59.388;17.798;2023-03-14T06:50:30;1.70;;;0.80;;
12687;SDS011;6408;59.388;17.798;2023-03-14T06:52:58;4.90;;;0.93;;
12687;SDS011;6408;59.388;17.798;2023-03-14T06:55:26;1.57;;;0.70;;
12687;SDS011;6408;59.388;17.798;2023-03-14T06:57:53;2.30;;;0.83;;
12687;SDS011;6408;59.388;17.798;2023-03-14T07:00:21;4.40;;;1.00;;
12687;SDS011;6408;59.388;17.798;2023-03-14T07:02:50;0.50;;;0.50;;
12687;SDS011;6408;59.388;17.798;2023-03-14T07:05:20;1.10;;;0.67;;
12687;SDS011;6408;59.388;17.798;2023-03-14T07:07:49;1.40;;;0.67;;
12687;SDS011;6408;59.388;17.798;2023-03-14T07:10:16;0.87;;;0.40;;
12687;SDS011;6408;59.388;17.798;2023-03-14T07:12:44;1.20;;;0.50;;
12687;SDS011;6408;59.388;17.798;2023-03-14T07:15:13;0.37;;;0.37;;
12687;SDS011;6408;59.388;17.798;2023-03-14T07:17:48;1.73;;;0.43;;
12687;SDS011;6408;59.388;17.798;2023-03-14T07:20:30;0.67;;;0.30;;
12687;SDS011;6408;59.388;17.798;2023-03-14T07:23:19;1.57;;;0.40;;
12687;SDS011;6408;59.388;17.798;2023-03-14T07:25:53;1.07;;;0.30;;
12687;SDS011;6408;59.388;17.798;2023-03-14T07:28:31;0.60;;;0.40;;
12687;SDS011;6408;59.388;17.798;2023-03-14T07:31:02;0.93;;;0.50;;
12687;SDS011;6408;59.388;17.798;2023-03-14T07:33:38;1.43;;;0.47;;
12687;SDS011;6408;59.388;17.798;2023-03-14T07:36:20;0.47;;;0.33;;
12687;SDS011;6408;59.388;17.798;2023-03-14T07:38:57;1.20;;;0.60;;
12687;SDS011;6408;59.388;17.798;2023-03-14T07:41:25;1.30;;;0.30;;
12687;SDS011;6408;59.388;17.798;2023-03-14T07:44:12;0.73;;;0.47;;
12687;SDS011;6408;59.388;17.798;2023-03-14T07:46:41;1.10;;;0.37;;
12687;SDS011;6408;59.388;17.798;2023-03-14T07:49:12;0.10;;;0.10;;
12687;SDS011;6408;59.388;17.798;2023-03-14T07:51:43;0.10;;;0.10;;
12687;SDS011;6408;59.388;17.798;2023-03-14T07:54:14;0.97;;;0.30;;
12687;SDS011;6408;59.388;17.798;2023-03-14T07:56:43;0.30;;;0.30;;
12687;SDS011;6408;59.388;17.798;2023-03-14T07:59:14;0.20;;;0.20;;
12687;SDS011;6408;59.388;17.798;2023-03-14T08:01:41;0.30;;;0.30;;
12687;SDS011;6408;59.388;17.798;2023-03-14T08:04:09;0.30;;;0.30;;
12687;SDS011;6408;59.388;17.798;2023-03-14T08:06:37;0.37;;;0.23;;
12687;SDS011;6408;59.388;17.798;2023-03-14T08:09:06;0.40;;;0.20;;
12687;SDS011;6408;59.388;17.798;2023-03-14T08:11:34;0.20;;;0.20;;
12687;SDS011;6408;59.388;17.798;2023-03-14T08:14:01;0.40;;;0.40;;
12687;SDS011;6408;59.388;17.798;2023-03-14T08:16:31;0.30;;;0.30;;
12687;SDS011;6408;59.388;17.798;2023-03-14T08:19:01;0.30;;;0.30;;
12687;SDS011;6408;59.388;17.798;2023-03-14T08:21:28;0.30;;;0.30;;
12687;SDS011;6408;59.388;17.798;2023-03-14T08:23:56;1.03;;;0.27;;
12687;SDS011;6408;59.388;17.798;2023-03-14T08:26:27;0.47;;;0.20;;
12687;SDS011;6408;59.388;17.798;2023-03-14T08:28:56;0.40;;;0.40;;
12687;SDS011;6408;59.388;17.798;2023-03-14T08:31:33;0.80;;;0.40;;
12687;SDS011;6408;59.388;17.798;2023-03-14T08:34:10;0.20;;;0.20;;
12687;SDS011;6408;59.388;17.798;2023-03-14T08:36:41;0.37;;;0.37;;
12687;SDS011;6408;59.388;17.798;2023-03-14T08:39:28;0.53;;;0.20;;
12687;SDS011;6408;59.388;17.798;2023-03-14T08:42:31;0.33;;;0.33;;
12687;SDS011;6408;59.388;17.798;2023-03-14T08:45:14;0.20;;;0.20;;
12687;SDS011;6408;59.388;17.798;2023-03-14T08:47:43;0.30;;;0.30;;
12687;SDS011;6408;59.388;17.798;2023-03-14T08:50:12;0.80;;;0.27;;
12687;SDS011;6408;59.388;17.798;2023-03-14T08:52:44;0.30;;;0.20;;
12687;SDS011;6408;59.388;17.798;2023-03-14T08:55:22;0.20;;;0.20;;
12687;SDS011;6408;59.388;17.798;2023-03-14T08:57:57;0.40;;;0.37;;
12687;SDS011;6408;59.388;17.798;2023-03-14T09:00:26;0.20;;;0.20;;
12687;SDS011;6408;59.388;17.798;2023-03-14T09:02:54;0.40;;;0.40;;
12687;SDS011;6408;59.388;17.798;2023-03-14T09:06:11;0.10;;;0.10;;
12687;SDS011;6408;59.388;17.798;2023-03-14T09:08:30;0.23;;;0.23;;
12687;SDS011;6408;59.388;17.798;2023-03-14T09:11:20;0.10;;;0.10;;
12687;SDS011;6408;59.388;17.798;2023-03-14T09:14:10;0.10;;;0.10;;
12687;SDS011;6408;59.388;17.798;2023-03-14T09:17:00;0.37;;;0.37;;
12687;SDS011;6408;59.388;17.798;2023-03-14T09:19:36;0.20;;;0.20;;
12687;SDS011;6408;59.388;17.798;2023-03-14T09:22:10;0.33;;;0.33;;
12687;SDS011;6408;59.388;17.798;2023-03-14T09:24:48;0.30;;;0.30;;
12687;SDS011;6408;59.388;17.798;2023-03-14T09:27:58;0.33;;;0.33;;
12687;SDS011;6408;59.388;17.798;2023-03-14T09:33:20;0.30;;;0.30;;
12687;SDS011;6408;59.388;17.798;2023-03-14T09:35:50;0.20;;;0.20;;
12687;SDS011;6408;59.388;17.798;2023-03-14T09:38:33;0.40;;;0.30;;
12687;SDS011;6408;59.388;17.798;2023-03-14T09:41:17;0.60;;;0.40;;
12687;SDS011;6408;59.388;17.798;2023-03-14T09:43:56;0.53;;;0.53;;
12687;SDS011;6408;59.388;17.798;2023-03-14T09:49:24;0.23;;;0.23;;
12687;SDS011;6408;59.388;17.798;2023-03-14T09:52:06;0.43;;;0.30;;
12687;SDS011;6408;59.388;17.798;2023-03-14T09:54:44;0.20;;;0.20;;
12687;SDS011;6408;59.388;17.798;2023-03-14T09:57:31;0.43;;;0.20;;
12687;SDS011;6408;59.388;17.798;2023-03-14T10:00:14;0.53;;;0.37;;
12687;SDS011;6408;59.388;17.798;2023-03-14T10:02:52;0.20;;;0.17;;
12687;SDS011;6408;59.388;17.798;2023-03-14T10:05:27;0.33;;;0.33;;
12687;SDS011;6408;59.388;17.798;2023-03-14T10:07:58;0.97;;;0.20;;
12687;SDS011;6408;59.388;17.798;2023-03-14T10:10:32;0.20;;;0.20;;
12687;SDS011;6408;59.388;17.798;2023-03-14T10:13:14;0.30;;;0.30;;
12687;SDS011;6408;59.388;17.798;2023-03-14T10:15:54;0.30;;;0.30;;
12687;SDS011;6408;59.388;17.798;2023-03-14T10:18:36;0.53;;;0.40;;
12687;SDS011;6408;59.388;17.798;2023-03-14T10:21:21;0.40;;;0.30;;
12687;SDS011;6408;59.388;17.798;2023-03-14T10:24:16;0.50;;;0.40;;
12687;SDS011;6408;59.388;17.798;2023-03-14T10:27:00;0.27;;;0.27;;
12687;SDS011;6408;59.388;17.798;2023-03-14T10:29:35;0.20;;;0.20;;
12687;SDS011;6408;59.388;17.798;2023-03-14T10:32:27;0.33;;;0.30;;
12687;SDS011;6408;59.388;17.798;2023-03-14T10:35:18;0.60;;;0.60;;
12687;SDS011;6408;59.388;17.798;2023-03-14T10:37:52;0.87;;;0.20;;
12687;SDS011;6408;59.388;17.798;2023-03-14T10:40:27;0.57;;;0.30;;
12687;SDS011;6408;59.388;17.798;2023-03-14T10:42:59;0.40;;;0.40;;
12687;SDS011;6408;59.388;17.798;2023-03-14T10:45:32;0.40;;;0.40;;
12687;SDS011;6408;59.388;17.798;2023-03-14T10:48:17;0.60;;;0.40;;
12687;SDS011;6408;59.388;17.798;2023-03-14T10:54:12;0.30;;;0.30;;
12687;SDS011;6408;59.388;17.798;2023-03-14T10:56:57;0.27;;;0.27;;
12687;SDS011;6408;59.388;17.798;2023-03-14T10:59:33;0.30;;;0.30;;
12687;SDS011;6408;59.388;17.798;2023-03-14T11:02:17;0.27;;;0.27;;
12687;SDS011;6408;59.388;17.798;2023-03-14T11:05:25;0.30;;;0.30;;
12687;SDS011;6408;59.388;17.798;2023-03-14T11:08:06;0.30;;;0.30;;
12687;SDS011;6408;59.388;17.798;2023-03-14T11:10:44;0.33;;;0.33;;
12687;SDS011;6408;59.388;17.798;2023-03-14T11:13:30;0.30;;;0.30;;
12687;SDS011;6408;59.388;17.798;2023-03-14T11:16:09;0.20;;;0.20;;
12687;SDS011;6408;59.388;17.798;2023-03-14T11:18:53;0.90;;;0.50;;
12687;SDS011;6408;59.388;17.798;2023-03-14T11:21:36;0.30;;;0.30;;
12687;SDS011;6408;59.388;17.798;2023-03-14T11:27:04;0.93;;;0.30;;
12687;SDS011;6408;59.388;17.798;2023-03-14T11:29:55;0.87;;;0.57;;
12687;SDS011;6408;59.388;17.798;2023-03-14T11:32:36;0.50;;;0.50;;
12687;SDS011;6408;59.388;17.798;2023-03-14T11:35:26;0.70;;;0.60;;
12687;SDS011;6408;59.388;17.798;2023-03-14T11:38:10;0.63;;;0.60;;
12687;SDS011;6408;59.388;17.798;2023-03-14T11:40:51;0.40;;;0.40;;
12687;SDS011;6408;59.388;17.798;2023-03-14T11:43:26;0.40;;;0.37;;
12687;SDS011;6408;59.388;17.798;2023-03-14T11:46:19;1.23;;;0.70;;
12687;SDS011;6408;59.388;17.798;2023-03-14T11:49:00;0.60;;;0.50;;
12687;SDS011;6408;59.388;17.798;2023-03-14T11:51:36;1.33;;;0.50;;
12687;SDS011;6408;59.388;17.798;2023-03-14T11:54:16;1.90;;;0.20;;
12687;SDS011;6408;59.388;17.798;2023-03-14T11:56:54;0.50;;;0.33;;
12687;SDS011;6408;59.388;17.798;2023-03-14T11:59:40;0.27;;;0.27;;
12687;SDS011;6408;59.388;17.798;2023-03-14T12:02:21;0.30;;;0.30;;
12687;SDS011;6408;59.388;17.798;2023-03-14T12:05:00;0.70;;;0.70;;
12687;SDS011;6408;59.388;17.798;2023-03-14T12:08:03;0.50;;;0.50;;
12687;SDS011;6408;59.388;17.798;2023-03-14T12:11:14;0.33;;;0.33;;
12687;SDS011;6408;59.388;17.798;2023-03-14T12:14:00;0.30;;;0.20;;
12687;SDS011;6408;59.388;17.798;2023-03-14T12:16:53;0.20;;;0.20;;
12687;SDS011;6408;59.388;17.798;2023-03-14T12:19:38;0.60;;;0.40;;
12687;SDS011;6408;59.388;17.798;2023-03-14T12:24:57;0.43;;;0.20;;
12687;SDS011;6408;59.388;17.798;2023-03-14T12:27:43;0.20;;;0.20;;
12687;SDS011;6408;59.388;17.798;2023-03-14T12:30:40;0.30;;;0.30;;
12687;SDS011;6408;59.388;17.798;2023-03-14T12:33:25;0.20;;;0.20;;
12687;SDS011;6408;59.388;17.798;2023-03-14T12:36:03;0.30;;;0.30;;
12687;SDS011;6408;59.388;17.798;2023-03-14T12:38:59;0.63;;;0.50;;
12687;SDS011;6408;59.388;17.798;2023-03-14T12:41:48;0.37;;;0.33;;
12687;SDS011;6408;59.388;17.798;2023-03-14T12:44:39;0.40;;;0.40;;
12687;SDS011;6408;59.388;17.798;2023-03-14T12:50:28;0.63;;;0.47;;
12687;SDS011;6408;59.388;17.798;2023-03-14T12:56:06;0.57;;;0.50;;
12687;SDS011;6408;59.388;17.798;2023-03-14T12:59:02;0.80;;;0.70;;
12687;SDS011;6408;59.388;17.798;2023-03-14T13:02:10;0.60;;;0.60;;
12687;SDS011;6408;59.388;17.798;2023-03-14T13:05:05;0.67;;;0.50;;
12687;SDS011;6408;59.388;17.798;2023-03-14T13:11:10;0.70;;;0.63;;
12687;SDS011;6408;59.388;17.798;2023-03-14T13:13:45;0.50;;;0.50;;
12687;SDS011;6408;59.388;17.798;2023-03-14T13:16:16;0.40;;;0.40;;
12687;SDS011;6408;59.388;17.798;2023-03-14T13:18:59;0.37;;;0.37;;
12687;SDS011;6408;59.388;17.798;2023-03-14T13:21:34;0.53;;;0.53;;
12687;SDS011;6408;59.388;17.798;2023-03-14T13:24:20;0.70;;;0.40;;
12687;SDS011;6408;59.388;17.798;2023-03-14T13:27:00;0.60;;;0.60;;
12687;SDS011;6408;59.388;17.798;2023-03-14T13:29:33;1.07;;;0.70;;
12687;SDS011;6408;59.388;17.798;2023-03-14T13:32:13;0.30;;;0.30;;
12687;SDS011;6408;59.388;17.798;2023-03-14T13:34:47;0.77;;;0.60;;
12687;SDS011;6408;59.388;17.798;2023-03-14T13:37:22;0.40;;;0.40;;
12687;SDS011;6408;59.388;17.798;2023-03-14T13:39:58;0.90;;;0.70;;
12687;SDS011;6408;59.388;17.798;2023-03-14T13:42:29;0.50;;;0.50;;
12687;SDS011;6408;59.388;17.798;2023-03-14T13:44:57;0.30;;;0.30;;
12687;SDS011;6408;59.388;17.798;2023-03-14T13:47:29;0.50;;;0.50;;
12687;SDS011;6408;59.388;17.798;2023-03-14T13:50:21;0.30;;;0.30;;
12687;SDS011;6408;59.388;17.798;2023-03-14T13:52:55;0.40;;;0.40;;
12687;SDS011;6408;59.388;17.798;2023-03-14T13:55:38;0.40;;;0.40;;
12687;SDS011;6408;59.388;17.798;2023-03-14T13:58:28;0.53;;;0.53;;
12687;SDS011;6408;59.388;17.798;2023-03-14T14:01:00;0.40;;;0.40;;
12687;SDS011;6408;59.388;17.798;2023-03-14T14:03:39;0.37;;;0.30;;
12687;SDS011;6408;59.388;17.798;2023-03-14T14:06:31;0.43;;;0.43;;
12687;SDS011;6408;59.388;17.798;2023-03-14T14:09:09;0.60;;;0.60;;
12687;SDS011;6408;59.388;17.798;2023-03-14T14:11:44;0.70;;;0.70;;
12687;SDS011;6408;59.388;17.798;2023-03-14T14:14:18;0.40;;;0.40;;
12687;SDS011;6408;59.388;17.798;2023-03-14T14:16:53;0.50;;;0.43;;
12687;SDS011;6408;59.388;17.798;2023-03-14T14:19:40;0.50;;;0.50;;
12687;SDS011;6408;59.388;17.798;2023-03-14T14:22:08;0.40;;;0.40;;
12687;SDS011;6408;59.388;17.798;2023-03-14T14:24:37;0.67;;;0.67;;
12687;SDS011;6408;59.388;17.798;2023-03-14T14:27:08;0.63;;;0.60;;
12687;SDS011;6408;59.388;17.798;2023-03-14T14:29:58;0.77;;;0.60;;
12687;SDS011;6408;59.388;17.798;2023-03-14T14:32:36;0.60;;;0.60;;
12687;SDS011;6408;59.388;17.798;2023-03-14T14:35:05;0.30;;;0.30;;
12687;SDS011;6408;59.388;17.798;2023-03-14T14:37:40;0.40;;;0.40;;
12687;SDS011;6408;59.388;17.798;2023-03-14T14:40:18;0.50;;;0.50;;
12687;SDS011;6408;59.388;17.798;2023-03-14T14:42:53;0.43;;;0.43;;
12687;SDS011;6408;59.388;17.798;2023-03-14T14:45:35;0.47;;;0.47;;
12687;SDS011;6408;59.388;17.798;2023-03-14T14:48:09;0.50;;;0.50;;
12687;SDS011;6408;59.388;17.798;2023-03-14T14:53:39;0.50;;;0.50;;
12687;SDS011;6408;59.388;17.798;2023-03-14T14:56:15;0.43;;;0.43;;
12687;SDS011;6408;59.388;17.798;2023-03-14T14:58:47;0.50;;;0.50;;
12687;SDS011;6408;59.388;17.798;2023-03-14T15:01:22;0.40;;;0.40;;
12687;SDS011;6408;59.388;17.798;2023-03-14T15:03:55;0.40;;;0.40;;
12687;SDS011;6408;59.388;17.798;2023-03-14T15:06:29;0.50;;;0.50;;
12687;SDS011;6408;59.388;17.798;2023-03-14T15:09:00;0.57;;;0.50;;
12687;SDS011;6408;59.388;17.798;2023-03-14T15:11:27;0.57;;;0.57;;
12687;SDS011;6408;59.388;17.798;2023-03-14T15:13:55;1.13;;;0.50;;
12687;SDS011;6408;59.388;17.798;2023-03-14T15:16:27;0.60;;;0.60;;
12687;SDS011;6408;59.388;17.798;2023-03-14T15:18:59;0.80;;;0.80;;
12687;SDS011;6408;59.388;17.798;2023-03-14T15:21:31;0.70;;;0.70;;
12687;SDS011;6408;59.388;17.798;2023-03-14T15:23:59;1.10;;;0.57;;
12687;SDS011;6408;59.388;17.798;2023-03-14T15:26:27;0.50;;;0.50;;
12687;SDS011;6408;59.388;17.798;2023-03-14T15:28:56;0.73;;;0.73;;
12687;SDS011;6408;59.388;17.798;2023-03-14T15:31:23;1.50;;;0.60;;
12687;SDS011;6408;59.388;17.798;2023-03-14T15:33:53;0.50;;;0.50;;
12687;SDS011;6408;59.388;17.798;2023-03-14T15:36:22;1.07;;;0.80;;
12687;SDS011;6408;59.388;17.798;2023-03-14T15:38:51;0.60;;;0.60;;
12687;SDS011;6408;59.388;17.798;2023-03-14T15:41:21;0.60;;;0.60;;
12687;SDS011;6408;59.388;17.798;2023-03-14T15:43:49;1.87;;;0.60;;
12687;SDS011;6408;59.388;17.798;2023-03-14T15:46:17;0.60;;;0.60;;
12687;SDS011;6408;59.388;17.798;2023-03-14T15:48:49;0.60;;;0.60;;
12687;SDS011;6408;59.388;17.798;2023-03-14T15:51:17;1.00;;;0.60;;
12687;SDS011;6408;59.388;17.798;2023-03-14T15:53:45;0.80;;;0.80;;
12687;SDS011;6408;59.388;17.798;2023-03-14T15:56:14;0.87;;;0.70;;